Wetterdaten: Woche 13.12.10 - 19.12.10 (KW50)
Datum Zeit Temperatur Luftfeuchte Luftdruck Niederschlag Wind Richtung Sonnenschein Solar Taupunkt Windchill Windben
13.12.2010 00:00 2.0 C 92 % 1016.5 hPa 0.0 l/m 1.0 km/h (0 Bft) S-SW 0.00 h 0 W/m 0.9 C 2.0 C 2.5 km/h (1 Bft)
13.12.2010 01:00 1.9 C 92 % 1016.7 hPa 0.0 l/m 1.3 km/h (1 Bft) N 0.00 h 0 W/m 0.8 C 1.8 C 3.0 km/h (1 Bft)
13.12.2010 02:00 1.9 C 92 % 1016.8 hPa 0.0 l/m 0.5 km/h (0 Bft) W-NW 0.00 h 0 W/m 0.7 C 1.9 C 1.4 km/h (1 Bft)
13.12.2010 03:00 1.8 C 92 % 1017.1 hPa 0.0 l/m 2.1 km/h (1 Bft) W-NW 0.00 h 0 W/m 0.6 C 1.6 C 4.3 km/h (1 Bft)
13.12.2010 04:00 1.6 C 93 % 1017.2 hPa 0.0 l/m 0.6 km/h (0 Bft) N-NW 0.00 h 0 W/m 0.6 C 1.6 C 1.8 km/h (1 Bft)
13.12.2010 05:00 1.3 C 93 % 1017.7 hPa 0.0 l/m 0.3 km/h (0 Bft) O-NO 0.00 h 0 W/m 0.4 C 1.3 C 0.5 km/h (0 Bft)
13.12.2010 06:00 1.2 C 89 % 1018.3 hPa 0.0 l/m 4.7 km/h (1 Bft) NO 0.00 h 0 W/m -0.5 C -0.0 C 9.9 km/h (2 Bft)
13.12.2010 07:00 0.8 C 80 % 1019.1 hPa 0.0 l/m 7.2 km/h (2 Bft) N-NO 0.00 h 0 W/m -2.2 C -1.2 C 13.4 km/h (3 Bft)
13.12.2010 08:00 0.2 C 76 % 1020.0 hPa 0.0 l/m 9.3 km/h (2 Bft) N-NO 0.00 h 15 W/m -3.5 C -2.8 C 17.3 km/h (3 Bft)
13.12.2010 09:00 -0.1 C 76 % 1021.1 hPa 0.0 l/m 7.1 km/h (2 Bft) N-NO 0.00 h 41 W/m -3.8 C -2.2 C 13.6 km/h (3 Bft)
13.12.2010 10:00 -0.2 C 75 % 1021.9 hPa 0.0 l/m 4.8 km/h (1 Bft) N-NO 0.05 h 64 W/m -4.0 C -1.4 C 9.2 km/h (2 Bft)
13.12.2010 11:00 0.3 C 72 % 1022.2 hPa 0.0 l/m 5.3 km/h (1 Bft) N-NO 0.27 h 138 W/m -4.1 C -1.0 C 10.5 km/h (2 Bft)
13.12.2010 12:00 0.1 C 71 % 1022.2 hPa 0.0 l/m 3.1 km/h (1 Bft) N-NO 0.00 h 90 W/m -4.5 C -0.5 C 7.0 km/h (2 Bft)
13.12.2010 13:00 0.2 C 70 % 1021.8 hPa 0.0 l/m 3.0 km/h (1 Bft) O-SO 0.08 h 119 W/m -4.7 C -0.2 C 6.2 km/h (2 Bft)
13.12.2010 14:00 0.0 C 69 % 1021.9 hPa 0.0 l/m 3.7 km/h (1 Bft) O-SO 0.53 h 128 W/m -5.0 C -0.7 C 7.0 km/h (2 Bft)
13.12.2010 15:00 -0.2 C 71 % 1022.1 hPa 0.0 l/m 4.2 km/h (1 Bft) O-SO 0.67 h 73 W/m -4.9 C -1.1 C 6.4 km/h (2 Bft)
13.12.2010 16:00 -0.9 C 73 % 1022.2 hPa 0.0 l/m 4.1 km/h (1 Bft) O-SO 0.03 h 13 W/m -5.0 C -1.6 C 5.7 km/h (1 Bft)
13.12.2010 17:00 -1.7 C 77 % 1022.6 hPa 0.0 l/m 1.9 km/h (1 Bft) O-SO 0.00 h 0 W/m -5.1 C -1.7 C 2.8 km/h (1 Bft)
13.12.2010 18:00 -2.4 C 80 % 1023.1 hPa 0.0 l/m 0.6 km/h (0 Bft) O-SO 0.00 h 0 W/m -5.4 C -2.4 C 1.6 km/h (1 Bft)
13.12.2010 19:00 -2.9 C 79 % 1023.2 hPa 0.0 l/m 0.9 km/h (0 Bft) SO 0.00 h 0 W/m -5.9 C -2.9 C 2.2 km/h (1 Bft)
13.12.2010 20:00 -3.4 C 82 % 1023.2 hPa 0.0 l/m 1.7 km/h (1 Bft) SO 0.00 h 0 W/m -6.1 C -3.4 C 2.9 km/h (1 Bft)
13.12.2010 21:00 -4.2 C 86 % 1023.5 hPa 0.0 l/m 1.3 km/h (1 Bft) SO 0.00 h 0 W/m -6.1 C -4.2 C 2.3 km/h (1 Bft)
13.12.2010 22:00 -4.7 C 88 % 1023.4 hPa 0.0 l/m 1.8 km/h (1 Bft) O-SO 0.00 h 0 W/m -6.4 C -4.8 C 3.0 km/h (1 Bft)
13.12.2010 23:00 -5.2 C 88 % 1023.5 hPa 0.0 l/m 0.0 km/h (0 Bft) N 0.00 h 0 W/m -6.9 C -5.2 C 0.3 km/h (0 Bft)
14.12.2010 00:00 -5.6 C 90 % 1022.9 hPa 0.0 l/m 0.4 km/h (0 Bft) O-SO 0.00 h 0 W/m -7.0 C -5.6 C 0.7 km/h (0 Bft)
14.12.2010 01:00 -5.5 C 91 % 1022.4 hPa 0.0 l/m 1.5 km/h (1 Bft) O-SO 0.00 h 0 W/m -6.7 C -5.5 C 2.7 km/h (1 Bft)
14.12.2010 02:00 -4.9 C 90 % 1022.3 hPa 0.0 l/m 1.3 km/h (1 Bft) O-SO 0.00 h 0 W/m -6.2 C -5.0 C 2.1 km/h (1 Bft)
14.12.2010 03:00 -4.6 C 91 % 1022.0 hPa 0.0 l/m 1.0 km/h (0 Bft) O-SO 0.00 h 0 W/m -5.9 C -4.7 C 2.1 km/h (1 Bft)
14.12.2010 04:00 -4.4 C 91 % 1021.8 hPa 0.0 l/m 0.4 km/h (0 Bft) S 0.00 h 0 W/m -5.6 C -4.4 C 1.2 km/h (1 Bft)
14.12.2010 05:00 -4.2 C 90 % 1021.8 hPa 0.0 l/m 0.4 km/h (0 Bft) S 0.00 h 0 W/m -5.6 C -4.2 C 1.2 km/h (1 Bft)
14.12.2010 06:00 -3.9 C 91 % 1021.9 hPa 0.0 l/m 0.5 km/h (0 Bft) S 0.00 h 0 W/m -5.1 C -3.9 C 1.7 km/h (1 Bft)
14.12.2010 07:00 -3.8 C 92 % 1022.5 hPa 0.0 l/m 0.3 km/h (0 Bft) S 0.00 h 0 W/m -4.8 C -3.8 C 1.2 km/h (1 Bft)
14.12.2010 08:00 -3.7 C 93 % 1023.2 hPa 0.0 l/m 0.0 km/h (0 Bft) N 0.00 h 9 W/m -4.7 C -3.7 C 0.0 km/h (0 Bft)
14.12.2010 09:00 -3.3 C 93 % 1023.6 hPa 0.2 l/m 0.0 km/h (0 Bft) N 0.00 h 27 W/m -4.3 C -3.3 C 0.2 km/h (0 Bft)
14.12.2010 10:00 -3.0 C 92 % 1024.3 hPa 0.0 l/m 0.3 km/h (0 Bft) O-SO 0.00 h 41 W/m -4.1 C -3.0 C 1.0 km/h (0 Bft)
14.12.2010 11:00 -2.6 C 87 % 1024.8 hPa 0.0 l/m 1.0 km/h (0 Bft) N 0.50 h 151 W/m -4.4 C -2.7 C 2.4 km/h (1 Bft)
14.12.2010 12:00 -2.5 C 83 % 1025.0 hPa 0.0 l/m 1.5 km/h (1 Bft) O-SO 0.27 h 143 W/m -4.9 C -2.5 C 3.6 km/h (1 Bft)
14.12.2010 13:00 -2.2 C 80 % 1025.2 hPa 0.0 l/m 3.4 km/h (1 Bft) SO 0.65 h 194 W/m -5.1 C -2.8 C 5.7 km/h (1 Bft)
14.12.2010 14:00 -1.5 C 76 % 1025.2 hPa 0.0 l/m 1.3 km/h (1 Bft) SO 0.38 h 137 W/m -5.2 C -1.5 C 3.5 km/h (1 Bft)
14.12.2010 15:00 -1.5 C 74 % 1025.7 hPa 0.0 l/m 2.1 km/h (1 Bft) N-NO 0.00 h 24 W/m -5.6 C -1.8 C 4.6 km/h (1 Bft)
14.12.2010 16:00 -2.0 C 73 % 1026.3 hPa 0.0 l/m 1.5 km/h (1 Bft) N-NO 0.00 h 7 W/m -6.1 C -2.0 C 3.8 km/h (1 Bft)
14.12.2010 17:00 -2.4 C 74 % 1027.0 hPa 0.0 l/m 4.0 km/h (1 Bft) N-NO 0.00 h 0 W/m -6.3 C -3.3 C 8.4 km/h (2 Bft)
14.12.2010 18:00 -3.3 C 76 % 1027.5 hPa 0.0 l/m 3.3 km/h (1 Bft) N 0.00 h 0 W/m -6.9 C -4.0 C 7.5 km/h (2 Bft)
14.12.2010 19:00 -3.8 C 77 % 1028.0 hPa 0.0 l/m 0.9 km/h (0 Bft) O-SO 0.00 h 0 W/m -7.2 C -3.8 C 2.1 km/h (1 Bft)
14.12.2010 20:00 -3.8 C 77 % 1028.2 hPa 0.0 l/m 0.7 km/h (0 Bft) SW 0.00 h 0 W/m -7.3 C -3.9 C 1.9 km/h (1 Bft)
14.12.2010 21:00 -3.9 C 77 % 1028.5 hPa 0.0 l/m 0.1 km/h (0 Bft) SW 0.00 h 0 W/m -7.3 C -3.9 C 0.6 km/h (0 Bft)
14.12.2010 22:00 -4.0 C 78 % 1028.8 hPa 0.0 l/m 0.0 km/h (0 Bft) N 0.00 h 0 W/m -7.2 C -4.0 C 0.0 km/h (0 Bft)
14.12.2010 23:00 -4.5 C 79 % 1029.1 hPa 0.0 l/m 0.1 km/h (0 Bft) SW 0.00 h 0 W/m -7.6 C -4.5 C 0.5 km/h (0 Bft)
15.12.2010 00:00 -5.4 C 81 % 1029.2 hPa 0.0 l/m 1.1 km/h (0 Bft) S 0.00 h 0 W/m -8.1 C -5.4 C 1.7 km/h (1 Bft)
15.12.2010 01:00 -6.2 C 85 % 1029.2 hPa 0.0 l/m 1.0 km/h (0 Bft) S 0.00 h 0 W/m -8.3 C -6.2 C 1.7 km/h (1 Bft)
15.12.2010 02:00 -6.7 C 87 % 1029.3 hPa 0.0 l/m 1.8 km/h (1 Bft) O 0.00 h 0 W/m -8.5 C -6.7 C 2.9 km/h (1 Bft)
15.12.2010 03:00 -6.7 C 88 % 1029.5 hPa 0.0 l/m 1.6 km/h (1 Bft) O-NO 0.00 h 0 W/m -8.3 C -6.7 C 2.9 km/h (1 Bft)
15.12.2010 04:00 -6.2 C 90 % 1029.4 hPa 0.0 l/m 0.2 km/h (0 Bft) O-NO 0.00 h 0 W/m -7.7 C -6.2 C 0.7 km/h (0 Bft)
15.12.2010 05:00 -5.7 C 92 % 1029.4 hPa 0.0 l/m 0.2 km/h (0 Bft) O-NO 0.00 h 0 W/m -6.8 C -5.7 C 0.7 km/h (0 Bft)
15.12.2010 06:00 -5.3 C 93 % 1029.3 hPa 0.0 l/m 1.1 km/h (1 Bft) O 0.00 h 0 W/m -6.2 C -5.3 C 2.7 km/h (1 Bft)
15.12.2010 07:00 -4.9 C 93 % 1029.5 hPa 0.0 l/m 0.7 km/h (0 Bft) S-SO 0.00 h 0 W/m -5.9 C -4.9 C 2.3 km/h (1 Bft)
15.12.2010 08:00 -4.6 C 93 % 1029.7 hPa 0.0 l/m 0.4 km/h (0 Bft) S-SO 0.00 h 9 W/m -5.6 C -4.6 C 1.7 km/h (1 Bft)
15.12.2010 09:00 -4.1 C 92 % 1029.7 hPa 0.2 l/m 1.1 km/h (1 Bft) NW 0.00 h 24 W/m -5.3 C -4.2 C 2.5 km/h (1 Bft)
15.12.2010 10:00 -3.7 C 88 % 1029.7 hPa 0.0 l/m 2.5 km/h (1 Bft) W 0.00 h 52 W/m -5.4 C -4.2 C 4.8 km/h (1 Bft)
15.12.2010 11:00 -3.4 C 84 % 1029.4 hPa 0.2 l/m 7.2 km/h (2 Bft) W 0.00 h 92 W/m -5.7 C -6.1 C 11.2 km/h (2 Bft)
15.12.2010 12:00 -3.1 C 81 % 1028.8 hPa 0.0 l/m 9.7 km/h (2 Bft) W 0.00 h 119 W/m -5.8 C -6.8 C 15.4 km/h (3 Bft)
15.12.2010 13:00 -3.1 C 79 % 1028.1 hPa 0.0 l/m 11.7 km/h (2 Bft) W 0.00 h 127 W/m -6.2 C -7.5 C 18.1 km/h (3 Bft)
15.12.2010 14:00 -3.3 C 78 % 1027.7 hPa 0.0 l/m 9.6 km/h (2 Bft) W 0.00 h 95 W/m -6.6 C -7.0 C 14.6 km/h (3 Bft)
15.12.2010 15:00 -3.2 C 77 % 1027.4 hPa 0.0 l/m 4.6 km/h (1 Bft) W 0.00 h 48 W/m -6.6 C -4.7 C 7.7 km/h (2 Bft)
15.12.2010 16:00 -3.4 C 79 % 1027.2 hPa 0.0 l/m 5.8 km/h (2 Bft) W 0.00 h 12 W/m -6.6 C -5.4 C 8.7 km/h (2 Bft)
15.12.2010 17:00 -3.6 C 80 % 1027.0 hPa 0.0 l/m 4.1 km/h (1 Bft) W 0.00 h 0 W/m -6.6 C -4.7 C 6.9 km/h (2 Bft)
15.12.2010 18:00 -3.8 C 82 % 1026.6 hPa 0.0 l/m 4.6 km/h (1 Bft) W 0.00 h 0 W/m -6.4 C -5.1 C 7.4 km/h (2 Bft)
15.12.2010 19:00 -4.0 C 84 % 1026.3 hPa 0.0 l/m 6.2 km/h (2 Bft) W 0.00 h 0 W/m -6.3 C -6.4 C 9.6 km/h (2 Bft)
15.12.2010 20:00 -4.2 C 86 % 1025.9 hPa 0.0 l/m 5.0 km/h (1 Bft) W 0.00 h 0 W/m -6.2 C -5.7 C 7.3 km/h (2 Bft)
15.12.2010 21:00 -4.3 C 86 % 1025.4 hPa 0.0 l/m 3.4 km/h (1 Bft) W 0.00 h 0 W/m -6.2 C -5.2 C 5.8 km/h (2 Bft)
15.12.2010 22:00 -4.3 C 87 % 1025.1 hPa 0.0 l/m 4.7 km/h (1 Bft) W 0.00 h 0 W/m -6.2 C -5.9 C 7.5 km/h (2 Bft)
15.12.2010 23:00 -4.4 C 89 % 1024.7 hPa 0.0 l/m 0.8 km/h (0 Bft) W 0.00 h 0 W/m -6.0 C -4.5 C 2.4 km/h (1 Bft)
16.12.2010 00:00 -4.4 C 90 % 1023.9 hPa 0.0 l/m 1.7 km/h (1 Bft) S-SW 0.00 h 0 W/m -5.8 C -4.5 C 3.7 km/h (1 Bft)
16.12.2010 01:00 -4.4 C 91 % 1023.2 hPa 0.0 l/m 1.2 km/h (1 Bft) S-SO 0.00 h 0 W/m -5.6 C -4.4 C 3.1 km/h (1 Bft)
16.12.2010 02:00 -4.4 C 92 % 1022.5 hPa 0.0 l/m 1.0 km/h (0 Bft) S-SO 0.00 h 0 W/m -5.6 C -4.4 C 3.1 km/h (1 Bft)
16.12.2010 03:00 -4.6 C 91 % 1022.0 hPa 0.2 l/m 0.6 km/h (0 Bft) S 0.00 h 0 W/m -5.8 C -4.6 C 2.3 km/h (1 Bft)
16.12.2010 04:00 -4.5 C 91 % 1021.8 hPa 0.0 l/m 0.9 km/h (0 Bft) W-NW 0.00 h 0 W/m -5.7 C -4.5 C 2.1 km/h (1 Bft)
16.12.2010 05:00 -4.5 C 91 % 1021.6 hPa 0.0 l/m 0.5 km/h (0 Bft) W-NW 0.00 h 0 W/m -5.8 C -4.5 C 1.3 km/h (1 Bft)
16.12.2010 06:00 -4.5 C 91 % 1021.5 hPa 0.0 l/m 0.9 km/h (0 Bft) W-NW 0.00 h 0 W/m -5.8 C -4.5 C 2.2 km/h (1 Bft)
16.12.2010 07:00 -4.4 C 90 % 1020.9 hPa 0.0 l/m 0.3 km/h (0 Bft) W-NW 0.00 h 0 W/m -5.7 C -4.4 C 1.0 km/h (0 Bft)
16.12.2010 08:00 -4.3 C 91 % 1020.5 hPa 0.0 l/m 0.4 km/h (0 Bft) W-NW 0.00 h 10 W/m -5.6 C -4.3 C 1.6 km/h (1 Bft)
16.12.2010 09:00 -4.2 C 90 % 1020.0 hPa 0.0 l/m 0.7 km/h (0 Bft) W-NW 0.00 h 29 W/m -5.5 C -4.2 C 1.5 km/h (1 Bft)
16.12.2010 10:00 -3.4 C 87 % 1019.5 hPa 0.0 l/m 5.8 km/h (2 Bft) W 0.00 h 54 W/m -5.2 C -5.4 C 8.6 km/h (2 Bft)
16.12.2010 11:00 -2.9 C 82 % 1018.8 hPa 0.2 l/m 7.1 km/h (2 Bft) W 0.00 h 67 W/m -5.5 C -5.7 C 10.8 km/h (2 Bft)
16.12.2010 12:00 -3.0 C 80 % 1017.6 hPa 0.0 l/m 7.3 km/h (2 Bft) W 0.00 h 72 W/m -6.0 C -5.9 C 10.6 km/h (2 Bft)
16.12.2010 13:00 -2.8 C 79 % 1016.3 hPa 0.0 l/m 8.0 km/h (2 Bft) W 0.00 h 83 W/m -5.9 C -5.9 C 11.9 km/h (2 Bft)
16.12.2010 14:00 -2.8 C 78 % 1015.2 hPa 0.0 l/m 6.6 km/h (2 Bft) W 0.23 h 112 W/m -6.1 C -5.3 C 9.9 km/h (2 Bft)
16.12.2010 15:00 -2.9 C 78 % 1014.3 hPa 0.0 l/m 4.7 km/h (1 Bft) W-NW 0.08 h 58 W/m -6.2 C -4.3 C 7.3 km/h (2 Bft)
16.12.2010 16:00 -3.4 C 81 % 1013.3 hPa 0.0 l/m 1.5 km/h (1 Bft) W-NW 0.00 h 12 W/m -6.3 C -3.5 C 2.8 km/h (1 Bft)
16.12.2010 17:00 -3.9 C 84 % 1011.8 hPa 0.0 l/m 0.8 km/h (0 Bft) N-NW 0.00 h 0 W/m -6.3 C -4.0 C 1.9 km/h (1 Bft)
16.12.2010 18:00 -3.7 C 84 % 1010.5 hPa 0.0 l/m 1.0 km/h (0 Bft) N-NW 0.00 h 0 W/m -6.0 C -3.7 C 2.9 km/h (1 Bft)
16.12.2010 19:00 -3.3 C 84 % 1008.7 hPa 0.0 l/m 0.6 km/h (0 Bft) NO 0.00 h 0 W/m -5.6 C -3.3 C 2.1 km/h (1 Bft)
16.12.2010 20:00 -2.5 C 89 % 1007.4 hPa 0.0 l/m 3.7 km/h (1 Bft) SW 0.00 h 0 W/m -4.2 C -3.5 C 7.2 km/h (2 Bft)
16.12.2010 21:00 -2.2 C 91 % 1005.8 hPa 0.0 l/m 5.2 km/h (1 Bft) SW 0.00 h 0 W/m -3.5 C -4.0 C 9.4 km/h (2 Bft)
16.12.2010 22:00 -1.8 C 89 % 1004.1 hPa 0.0 l/m 7.9 km/h (2 Bft) S-SO 0.00 h 0 W/m -3.3 C -4.6 C 14.7 km/h (3 Bft)
16.12.2010 23:00 -1.9 C 91 % 1002.5 hPa 0.0 l/m 7.8 km/h (2 Bft) S 0.00 h 0 W/m -3.1 C -4.8 C 13.9 km/h (3 Bft)
17.12.2010 00:00 -1.7 C 93 % 1000.7 hPa 0.4 l/m 9.0 km/h (2 Bft) S 0.00 h 0 W/m -2.7 C -5.0 C 16.2 km/h (3 Bft)
17.12.2010 01:00 -1.6 C 94 % 999.0 hPa 0.2 l/m 9.7 km/h (2 Bft) S-SO 0.00 h 0 W/m -2.4 C -5.0 C 17.6 km/h (3 Bft)
17.12.2010 02:00 -1.2 C 94 % 997.6 hPa 0.2 l/m 9.3 km/h (2 Bft) S-SO 0.00 h 0 W/m -2.1 C -4.5 C 16.0 km/h (3 Bft)
17.12.2010 03:00 -1.0 C 95 % 996.2 hPa 0.4 l/m 6.8 km/h (2 Bft) S 0.00 h 0 W/m -1.8 C -3.2 C 12.1 km/h (2 Bft)
17.12.2010 04:00 -0.7 C 95 % 994.8 hPa 0.6 l/m 6.2 km/h (2 Bft) S-SO 0.00 h 0 W/m -1.4 C -2.7 C 10.4 km/h (2 Bft)
17.12.2010 05:00 -0.0 C 96 % 993.6 hPa 0.6 l/m 4.5 km/h (1 Bft) S-SW 0.00 h 0 W/m -0.6 C -1.0 C 8.3 km/h (2 Bft)
17.12.2010 06:00 0.4 C 96 % 992.4 hPa 0.8 l/m 2.2 km/h (1 Bft) S-SW 0.00 h 0 W/m -0.2 C 0.3 C 5.0 km/h (1 Bft)
17.12.2010 07:00 0.5 C 96 % 992.1 hPa 0.4 l/m 0.3 km/h (0 Bft) S-SW 0.00 h 0 W/m -0.0 C 0.5 C 0.6 km/h (0 Bft)
17.12.2010 08:00 0.8 C 97 % 992.5 hPa 1.0 l/m 4.8 km/h (1 Bft) W 0.00 h 0 W/m 0.4 C -0.6 C 8.0 km/h (2 Bft)
17.12.2010 09:00 1.0 C 94 % 993.2 hPa 0.8 l/m 11.2 km/h (2 Bft) W 0.00 h 9 W/m 0.2 C -2.2 C 17.4 km/h (3 Bft)
17.12.2010 10:00 0.9 C 94 % 994.4 hPa 0.8 l/m 8.0 km/h (2 Bft) W 0.00 h 10 W/m 0.0 C -1.5 C 12.2 km/h (2 Bft)
17.12.2010 11:00 1.1 C 95 % 995.1 hPa 1.2 l/m 1.1 km/h (0 Bft) SW 0.00 h 19 W/m 0.3 C 1.0 C 2.7 km/h (1 Bft)
17.12.2010 12:00 1.2 C 91 % 995.6 hPa 0.6 l/m 2.8 km/h (1 Bft) W-NW 0.00 h 24 W/m -0.0 C 0.9 C 5.0 km/h (1 Bft)
17.12.2010 13:00 1.5 C 88 % 995.7 hPa 0.4 l/m 4.8 km/h (1 Bft) W-NW 0.00 h 44 W/m -0.2 C 0.5 C 7.2 km/h (2 Bft)
17.12.2010 14:00 0.6 C 84 % 996.2 hPa 0.0 l/m 5.1 km/h (1 Bft) W-NW 0.00 h 45 W/m -1.8 C -0.6 C 7.7 km/h (2 Bft)
17.12.2010 15:00 -0.4 C 84 % 997.1 hPa 0.0 l/m 4.7 km/h (1 Bft) W 0.00 h 22 W/m -2.7 C -1.6 C 7.0 km/h (2 Bft)
17.12.2010 16:00 -1.1 C 88 % 997.9 hPa 0.0 l/m 1.4 km/h (1 Bft) W 0.00 h 8 W/m -2.8 C -1.3 C 2.4 km/h (1 Bft)
17.12.2010 17:00 -1.7 C 90 % 998.5 hPa 0.0 l/m 4.0 km/h (1 Bft) W-SW 0.00 h 0 W/m -3.1 C -2.5 C 6.4 km/h (2 Bft)
17.12.2010 18:00 -1.9 C 91 % 999.1 hPa 0.0 l/m 2.9 km/h (1 Bft) W 0.00 h 0 W/m -3.2 C -2.5 C 5.4 km/h (1 Bft)
17.12.2010 19:00 -2.2 C 90 % 999.4 hPa 0.0 l/m 6.8 km/h (2 Bft) W 0.00 h 0 W/m -3.6 C -4.8 C 10.4 km/h (2 Bft)
17.12.2010 20:00 -2.4 C 90 % 999.8 hPa 0.0 l/m 5.7 km/h (1 Bft) W 0.00 h 0 W/m -3.8 C -4.3 C 8.6 km/h (2 Bft)
17.12.2010 21:00 -2.6 C 90 % 1000.2 hPa 0.0 l/m 4.0 km/h (1 Bft) W 0.00 h 0 W/m -4.0 C -3.3 C 6.5 km/h (2 Bft)
17.12.2010 22:00 -2.8 C 91 % 1000.4 hPa 0.0 l/m 2.3 km/h (1 Bft) W-SW 0.00 h 0 W/m -4.0 C -3.0 C 4.4 km/h (1 Bft)
17.12.2010 23:00 -3.2 C 92 % 1000.4 hPa 0.0 l/m 2.9 km/h (1 Bft) S-SO 0.00 h 0 W/m -4.3 C -3.5 C 4.9 km/h (1 Bft)
18.12.2010 00:00 -4.5 C 91 % 1000.6 hPa 0.0 l/m 1.5 km/h (1 Bft) S-SO 0.00 h 0 W/m -5.7 C -4.5 C 3.2 km/h (1 Bft)
18.12.2010 01:00 -4.8 C 93 % 1000.5 hPa 0.0 l/m 2.2 km/h (1 Bft) SO 0.00 h 0 W/m -5.7 C -4.8 C 4.0 km/h (1 Bft)
18.12.2010 02:00 -5.0 C 94 % 1000.9 hPa 0.0 l/m 1.3 km/h (1 Bft) SO 0.00 h 0 W/m -5.8 C -5.1 C 2.9 km/h (1 Bft)
18.12.2010 03:00 -5.0 C 94 % 1001.0 hPa 0.0 l/m 3.0 km/h (1 Bft) S-SO 0.00 h 0 W/m -5.8 C -5.8 C 5.2 km/h (1 Bft)
18.12.2010 04:00 -5.9 C 92 % 1001.2 hPa 0.0 l/m 0.0 km/h (0 Bft) W 0.00 h 0 W/m -7.0 C -5.9 C 0.1 km/h (0 Bft)
18.12.2010 05:00 -7.3 C 93 % 1001.4 hPa 0.0 l/m 3.5 km/h (1 Bft) SO 0.00 h 0 W/m -8.3 C -8.1 C 4.6 km/h (1 Bft)
18.12.2010 06:00 -7.2 C 94 % 1001.7 hPa 0.0 l/m 1.2 km/h (1 Bft) O-SO 0.00 h 0 W/m -8.0 C -7.2 C 2.2 km/h (1 Bft)
18.12.2010 07:00 -6.1 C 95 % 1002.0 hPa 0.0 l/m 1.4 km/h (1 Bft) S-SO 0.00 h 0 W/m -6.8 C -6.3 C 2.9 km/h (1 Bft)
18.12.2010 08:00 -5.4 C 95 % 1002.4 hPa 0.0 l/m 0.3 km/h (0 Bft) S-SO 0.00 h 9 W/m -6.1 C -5.4 C 0.9 km/h (0 Bft)
18.12.2010 09:00 -4.7 C 95 % 1002.7 hPa 0.0 l/m 0.2 km/h (0 Bft) S 0.00 h 30 W/m -5.4 C -4.7 C 0.9 km/h (0 Bft)
18.12.2010 10:00 -3.5 C 94 % 1002.9 hPa 0.0 l/m 0.3 km/h (0 Bft) W 0.00 h 42 W/m -4.4 C -3.5 C 1.1 km/h (1 Bft)
18.12.2010 11:00 -2.3 C 89 % 1003.0 hPa 0.0 l/m 0.7 km/h (0 Bft) N-NW 0.00 h 81 W/m -3.8 C -2.3 C 1.4 km/h (1 Bft)
18.12.2010 12:00 -1.7 C 88 % 1003.1 hPa 0.0 l/m 1.5 km/h (1 Bft) NW 0.23 h 96 W/m -3.4 C -1.8 C 3.2 km/h (1 Bft)
18.12.2010 13:00 -1.6 C 90 % 1003.0 hPa 0.0 l/m 1.4 km/h (1 Bft) N-NW 0.75 h 211 W/m -3.0 C -1.7 C 3.5 km/h (1 Bft)
18.12.2010 14:00 -1.4 C 88 % 1003.3 hPa 0.0 l/m 2.1 km/h (1 Bft) W-NW 0.78 h 173 W/m -3.2 C -1.7 C 3.6 km/h (1 Bft)
18.12.2010 15:00 -2.2 C 88 % 1003.6 hPa 0.0 l/m 0.5 km/h (0 Bft) W-NW 0.20 h 46 W/m -4.0 C -2.2 C 1.3 km/h (1 Bft)
18.12.2010 16:00 -3.1 C 88 % 1004.0 hPa 0.0 l/m 0.2 km/h (0 Bft) W-NW 0.35 h 19 W/m -4.8 C -3.1 C 1.0 km/h (0 Bft)
18.12.2010 17:00 -4.6 C 93 % 1004.6 hPa 0.0 l/m 0.2 km/h (0 Bft) O-NO 0.00 h 0 W/m -5.6 C -4.6 C 0.8 km/h (0 Bft)
18.12.2010 18:00 -5.3 C 93 % 1004.9 hPa 0.0 l/m 0.3 km/h (0 Bft) O-NO 0.00 h 0 W/m -6.3 C -5.3 C 0.7 km/h (0 Bft)
18.12.2010 19:00 -6.2 C 92 % 1005.0 hPa 0.0 l/m 0.2 km/h (0 Bft) O-NO 0.00 h 0 W/m -7.2 C -6.2 C 0.5 km/h (0 Bft)
18.12.2010 20:00 -7.2 C 93 % 1004.9 hPa 0.0 l/m 0.3 km/h (0 Bft) O-NO 0.00 h 0 W/m -8.2 C -7.2 C 0.8 km/h (0 Bft)
18.12.2010 21:00 -7.5 C 94 % 1004.9 hPa 0.0 l/m 0.4 km/h (0 Bft) O-NO 0.00 h 0 W/m -8.3 C -7.5 C 0.9 km/h (0 Bft)
18.12.2010 22:00 -7.9 C 94 % 1004.5 hPa 0.0 l/m 1.6 km/h (1 Bft) O-NO 0.00 h 0 W/m -8.7 C -8.1 C 2.2 km/h (1 Bft)
18.12.2010 23:00 -8.3 C 93 % 1004.3 hPa 0.0 l/m 2.2 km/h (1 Bft) O-NO 0.00 h 0 W/m -9.2 C -8.8 C 3.1 km/h (1 Bft)
19.12.2010 00:00 -7.6 C 94 % 1003.3 hPa 0.0 l/m 2.4 km/h (1 Bft) SO 0.00 h 0 W/m -8.4 C -8.2 C 3.5 km/h (1 Bft)
19.12.2010 01:00 -6.6 C 95 % 1003.0 hPa 0.0 l/m 3.2 km/h (1 Bft) SO 0.00 h 0 W/m -7.3 C -7.7 C 5.2 km/h (1 Bft)
19.12.2010 02:00 -5.8 C 95 % 1002.4 hPa 0.0 l/m 1.2 km/h (1 Bft) O-SO 0.00 h 0 W/m -6.6 C -6.1 C 2.7 km/h (1 Bft)
19.12.2010 03:00 -4.8 C 95 % 1002.5 hPa 0.0 l/m 2.1 km/h (1 Bft) S-SO 0.00 h 0 W/m -5.5 C -5.2 C 4.0 km/h (1 Bft)
19.12.2010 04:00 -4.2 C 92 % 1002.9 hPa 0.0 l/m 2.7 km/h (1 Bft) SO 0.00 h 0 W/m -5.3 C -4.7 C 4.8 km/h (1 Bft)
19.12.2010 05:00 -4.0 C 93 % 1003.0 hPa 0.0 l/m 1.4 km/h (1 Bft) O-SO 0.00 h 0 W/m -4.9 C -4.0 C 2.9 km/h (1 Bft)
19.12.2010 06:00 -3.5 C 94 % 1003.0 hPa 0.4 l/m 0.5 km/h (0 Bft) O 0.00 h 0 W/m -4.3 C -3.5 C 1.3 km/h (1 Bft)
19.12.2010 07:00 -3.1 C 94 % 1003.1 hPa 0.2 l/m 1.0 km/h (0 Bft) O 0.00 h 0 W/m -3.9 C -3.1 C 2.1 km/h (1 Bft)
19.12.2010 08:00 -3.2 C 93 % 1003.2 hPa 0.2 l/m 0.0 km/h (0 Bft) N 0.00 h 9 W/m -4.2 C -3.2 C 0.1 km/h (0 Bft)
19.12.2010 09:00 -3.2 C 93 % 1003.4 hPa 0.0 l/m 0.0 km/h (0 Bft) N 0.00 h 19 W/m -4.1 C -3.2 C 0.2 km/h (0 Bft)
19.12.2010 10:00 -2.5 C 94 % 1003.2 hPa 0.2 l/m 0.2 km/h (0 Bft) O-SO 0.00 h 23 W/m -3.4 C -2.5 C 0.5 km/h (0 Bft)
19.12.2010 11:00 -1.8 C 92 % 1002.6 hPa 0.0 l/m 0.4 km/h (0 Bft) O-SO 0.00 h 56 W/m -2.9 C -1.8 C 1.4 km/h (1 Bft)
19.12.2010 12:00 -0.8 C 89 % 1001.5 hPa 0.0 l/m 0.6 km/h (0 Bft) W-SW 0.00 h 69 W/m -2.4 C -0.8 C 1.7 km/h (1 Bft)
19.12.2010 13:00 -0.7 C 89 % 1001.0 hPa 0.0 l/m 1.9 km/h (1 Bft) W-SW 0.00 h 62 W/m -2.3 C -1.1 C 3.2 km/h (1 Bft)
19.12.2010 14:00 -0.6 C 92 % 1000.2 hPa 0.0 l/m 3.3 km/h (1 Bft) O-SO 0.00 h 38 W/m -1.8 C -1.4 C 5.7 km/h (1 Bft)
19.12.2010 15:00 0.8 C 89 % 999.9 hPa 0.0 l/m 2.0 km/h (1 Bft) SO 0.00 h 19 W/m -0.8 C 0.3 C 3.7 km/h (1 Bft)
19.12.2010 16:00 1.2 C 88 % 999.7 hPa 0.0 l/m 1.0 km/h (0 Bft) SO 0.00 h 9 W/m -0.6 C 1.1 C 2.8 km/h (1 Bft)
19.12.2010 17:00 1.2 C 85 % 999.5 hPa 0.0 l/m 5.3 km/h (1 Bft) S-SO 0.00 h 0 W/m -1.0 C -0.1 C 9.1 km/h (2 Bft)
19.12.2010 18:00 1.4 C 83 % 999.0 hPa 0.0 l/m 4.2 km/h (1 Bft) S 0.00 h 0 W/m -1.2 C 0.6 C 8.3 km/h (2 Bft)
19.12.2010 19:00 1.5 C 84 % 998.9 hPa 0.0 l/m 4.0 km/h (1 Bft) S 0.00 h 0 W/m -0.9 C 0.6 C 8.0 km/h (2 Bft)
19.12.2010 20:00 2.5 C 83 % 998.5 hPa 0.0 l/m 8.0 km/h (2 Bft) S 0.00 h 0 W/m -0.0 C 0.5 C 14.2 km/h (3 Bft)
19.12.2010 21:00 3.1 C 84 % 998.3 hPa 0.0 l/m 6.0 km/h (2 Bft) N-NW 0.00 h 0 W/m 0.7 C 1.8 C 10.2 km/h (2 Bft)
19.12.2010 22:00 2.3 C 90 % 998.9 hPa 0.0 l/m 2.9 km/h (1 Bft) N-NW 0.00 h 0 W/m 0.9 C 1.9 C 5.8 km/h (2 Bft)
19.12.2010 23:00 3.3 C 91 % 999.6 hPa 0.2 l/m 3.8 km/h (1 Bft) SW 0.00 h 0 W/m 1.9 C 2.7 C 7.3 km/h (2 Bft)
Min-Datum _ 18.12.10 13.12.10 17.12.10 - 13.12.10 - - - 18.12.10 18.12.10 13.12.10
_ Min-Zeit 23:20 14:08 07:15 - 00:01 - - - 23:20 23:54 00:02
Minimum _ -8.5 C 67 % 992.1 hPa - 0.0 km/h (0 Bft) - - - -9.4 C -12.7 C 0.0 km/h (0 Bft)
Max-Datum _ 19.12.10 18.12.10 15.12.10 17.12.10 13.12.10 - 13.12.10 13.12.10 19.12.10 19.12.10 17.12.10
_ Max-Zeit 23:59 03:48 09:00 11:01 07:37 - 10:52 11:22 23:59 21:19 09:17
Maximum _ 4.7 C 100 % 1029.9 hPa 1.2 l/m 19.6 km/h
N-NO (3 Bft)
- 0.02 h 362 W/m 3.4 C 3.6 C 33.0 km/h
W (5 Bft)
Durchschnitt _ -2.7 C 87 % 1013.0 hPa #10.6 l/m 2.8 km/h (1 Bft) W #6:04 h 59 W/m -4.6 C -3.4 C 5.0 km/h (1 Bft)
© Kaiko 2010